Time;durP1;ratioP1;P1;durP2;ratioP2;P2;SDS_P1;SDS_P2;PMS_P1;PMS_P2;Temp;Humidity;BMP_temperature;BMP_pressure;BME280_temperature;BME280_humidity;BME280_pressure;Samples;Min_cycle;Max_cycle;Signal;HPM_P1;HPM_P2
2023/06/14 00:02:07;;;;;;;5.32;2.60;;;;;;;25.46;36.05;99388.72;4499806;31;33956;-70
2023/06/14 00:04:36;;;;;;;5.20;2.75;;;;;;;25.47;36.08;99390.38;4499651;31;33459;-65
2023/06/14 00:07:04;;;;;;;7.82;3.33;;;;;;;25.47;36.07;99393.09;4500018;31;33838;-69
2023/06/14 00:09:32;;;;;;;6.37;2.87;;;;;;;25.45;36.11;99387.88;4499130;31;33497;-67
2023/06/14 00:11:59;;;;;;;8.88;2.72;;;;;;;25.46;36.17;99396.91;4499528;31;33905;-66
2023/06/14 00:14:27;;;;;;;5.40;2.85;;;;;;;25.47;36.21;99393.09;4499735;31;32968;-70
2023/06/14 00:16:58;;;;;;;7.80;2.55;;;;;;;25.47;36.30;99390.38;4506723;31;33824;-71
2023/06/14 00:19:26;;;;;;;4.75;2.90;;;;;;;25.47;36.35;99382.19;4515258;31;34006;-70
2023/06/14 00:21:54;;;;;;;8.00;2.97;;;;;;;25.48;36.38;99391.19;4485069;32;34186;-71
2023/06/14 00:24:21;;;;;;;4.57;2.72;;;;;;;25.48;36.38;99391.19;4485694;32;34005;-67
2023/06/14 00:26:49;;;;;;;4.15;2.55;;;;;;;25.47;36.38;99395.84;4485407;32;34014;-70
2023/06/14 00:29:17;;;;;;;5.87;2.55;;;;;;;25.48;36.41;99404.84;4485570;32;34715;-71
2023/06/14 00:31:44;;;;;;;5.00;2.70;;;;;;;25.49;36.42;99398.31;4485414;32;33751;-70
2023/06/14 00:34:12;;;;;;;5.15;3.00;;;;;;;25.48;36.40;99402.12;4485560;32;34219;-66
2023/06/14 00:36:40;;;;;;;5.53;2.83;;;;;;;25.47;36.40;99404.03;4485502;32;33854;-69
2023/06/14 00:39:09;;;;;;;4.30;2.50;;;;;;;25.47;36.41;99395.84;4485523;32;33733;-71
2023/06/14 00:41:37;;;;;;;5.10;2.92;;;;;;;25.47;36.43;99404.03;4485618;32;34084;-70
2023/06/14 00:44:05;;;;;;;5.57;2.90;;;;;;;25.48;36.40;99405.69;4485522;32;33496;-70
2023/06/14 00:46:34;;;;;;;4.65;3.03;;;;;;;25.47;36.38;99401.31;4485439;32;33619;-69
2023/06/14 00:49:02;;;;;;;5.25;3.00;;;;;;;25.47;36.36;99398.56;4485257;32;33996;-71
2023/06/14 00:51:30;;;;;;;3.97;2.35;;;;;;;25.46;36.36;99413.31;4485413;32;33851;-71
2023/06/14 00:53:59;;;;;;;7.75;3.33;;;;;;;25.47;36.39;99406.75;4471564;32;33962;-71
2023/06/14 00:56:27;;;;;;;3.92;2.50;;;;;;;25.48;36.35;99405.69;4471178;32;33610;-69
2023/06/14 00:58:55;;;;;;;5.40;2.80;;;;;;;25.47;36.36;99401.31;4485367;32;33774;-71
2023/06/14 01:01:24;;;;;;;6.15;2.33;;;;;;;25.45;36.35;99398.78;4458499;32;33842;-70
2023/06/14 01:03:51;;;;;;;5.57;2.63;;;;;;;25.47;36.35;99401.31;4485514;32;33101;-70
2023/06/14 01:06:51;;;;;;;6.53;3.22;;;;;;;25.46;36.33;99394.19;4485368;32;33875;-66
2023/06/14 01:09:28;;;;;;;5.55;2.95;;;;;;;25.49;36.29;99395.56;4485301;32;34733;-67
2023/06/14 01:12:11;;;;;;;4.75;2.60;;;;;;;25.46;36.32;99396.91;4471604;32;34227;-70
2023/06/14 01:14:39;;;;;;;5.05;2.85;;;;;;;25.45;36.35;99395.25;4471240;32;33680;-69
2023/06/14 01:17:15;;;;;;;6.72;2.58;;;;;;;25.44;36.33;99399.06;4458293;32;33367;-69
2023/06/14 01:19:44;;;;;;;4.50;2.53;;;;;;;25.42;36.35;99402.06;4488424;31;34914;-69
2023/06/14 01:22:14;;;;;;;4.82;2.90;;;;;;;25.43;36.33;99398.22;4503096;31;33716;-68
2023/06/14 01:24:44;;;;;;;4.82;2.78;;;;;;;25.42;36.34;99395.75;4502409;31;33637;-66
2023/06/14 01:27:12;;;;;;;7.90;2.90;;;;;;;25.42;36.33;99390.31;4516949;31;33931;-69
2023/06/14 01:29:45;;;;;;;5.68;2.50;;;;;;;25.42;36.30;99390.31;4502457;31;33526;-69
2023/06/14 01:32:15;;;;;;;5.60;2.70;;;;;;;25.41;36.33;99391.34;4503169;31;33608;-70
2023/06/14 01:34:42;;;;;;;3.85;2.72;;;;;;;25.41;36.31;99399.53;4516961;31;33456;-70
2023/06/14 01:37:10;;;;;;;7.32;2.95;;;;;;;25.39;36.32;99398.97;4489414;31;33895;-70
2023/06/14 01:39:38;;;;;;;6.82;3.00;;;;;;;25.40;36.36;99392.44;4502459;31;34018;-70
2023/06/14 01:42:06;;;;;;;4.07;2.40;;;;;;;25.40;36.36;99395.16;4489514;31;33503;-68
2023/06/14 01:44:34;;;;;;;5.53;2.67;;;;;;;25.39;36.38;99401.72;4516883;31;34154;-67
2023/06/14 01:47:02;;;;;;;4.68;2.80;;;;;;;25.39;36.39;99397.06;4489806;31;34328;-68
2023/06/14 01:49:30;;;;;;;6.68;3.08;;;;;;;25.38;36.38;99394.59;4516899;31;33912;-70
2023/06/14 01:51:57;;;;;;;4.35;2.75;;;;;;;25.38;36.35;99400.88;4502250;31;33930;-70
2023/06/14 01:54:25;;;;;;;5.25;2.92;;;;;;;25.38;36.31;99406.34;4516748;31;33342;-68
2023/06/14 01:56:53;;;;;;;7.82;3.20;;;;;;;25.39;36.30;99404.44;4516737;31;33668;-70
2023/06/14 01:59:20;;;;;;;5.12;3.10;;;;;;;25.38;36.27;99405.53;4516479;31;34228;-67
2023/06/14 02:01:48;;;;;;;5.47;2.83;;;;;;;25.38;36.29;99405.53;4516877;31;34899;-69
2023/06/14 02:04:16;;;;;;;6.28;3.00;;;;;;;25.37;36.30;99409.34;4516648;31;33611;-70
2023/06/14 02:06:44;;;;;;;5.70;2.80;;;;;;;25.37;36.28;99409.34;4516525;31;34613;-71
2023/06/14 02:09:11;;;;;;;6.50;3.33;;;;;;;25.36;36.30;99411.22;4516903;31;35079;-64
2023/06/14 02:11:39;;;;;;;7.05;2.55;;;;;;;25.36;36.24;99407.66;4516559;31;34018;-70
2023/06/14 02:14:07;;;;;;;6.60;2.75;;;;;;;25.36;36.29;99413.94;4516830;31;32562;-71
2023/06/14 02:16:35;;;;;;;6.10;3.05;;;;;;;25.35;36.32;99411.47;4516467;31;34663;-70
2023/06/14 02:19:04;;;;;;;5.35;3.37;;;;;;;25.35;36.33;99419.66;4516611;31;33961;-69
2023/06/14 02:21:31;;;;;;;7.47;3.25;;;;;;;25.34;36.32;99407.09;4502811;31;34082;-70
2023/06/14 02:23:59;;;;;;;5.68;3.33;;;;;;;25.35;36.34;99411.47;4500627;31;34270;-69
2023/06/14 02:26:28;;;;;;;4.47;2.65;;;;;;;25.34;36.32;99410.66;4500620;31;33415;-69
2023/06/14 02:28:56;;;;;;;4.40;2.72;;;;;;;25.34;36.33;99415.28;4500422;31;34105;-70
2023/06/14 02:31:24;;;;;;;5.30;3.10;;;;;;;25.35;36.37;99414.22;4500409;31;34334;-68
2023/06/14 02:33:51;;;;;;;5.70;3.05;;;;;;;25.34;36.41;99416.13;4500648;31;33333;-70
2023/06/14 02:36:20;;;;;;;5.50;3.20;;;;;;;25.34;36.35;99407.91;4500346;31;34360;-67
2023/06/14 02:38:47;;;;;;;4.93;2.75;;;;;;;25.34;36.36;99415.28;4500524;31;34752;-71
2023/06/14 02:41:15;;;;;;;4.50;2.83;;;;;;;25.33;36.43;99416.38;4500408;31;34557;-69
2023/06/14 02:43:43;;;;;;;5.47;3.30;;;;;;;25.33;36.47;99419.94;4499642;31;33494;-67
2023/06/14 02:46:11;;;;;;;7.68;3.47;;;;;;;25.33;36.43;99417.19;4500334;31;34947;-65
2023/06/14 02:48:38;;;;;;;8.07;3.15;;;;;;;25.33;36.48;99414.47;4500541;31;34725;-65
2023/06/14 02:51:09;;;;;;;7.25;3.55;;;;;;;25.33;36.46;99409.00;4500249;31;34175;-66
2023/06/14 02:53:37;;;;;;;5.97;3.58;;;;;;;25.32;36.51;99407.34;4500660;31;32935;-70
2023/06/14 02:56:05;;;;;;;6.03;3.15;;;;;;;25.33;36.54;99408.19;4500686;31;34750;-71
2023/06/14 02:58:33;;;;;;;5.97;3.97;;;;;;;25.33;36.56;99413.63;4500435;31;33703;-68
2023/06/14 03:01:03;;;;;;;6.90;3.45;;;;;;;25.32;36.49;99420.16;4500385;31;34747;-70
2023/06/14 03:03:31;;;;;;;8.40;3.60;;;;;;;25.33;36.47;99419.09;4500507;31;33106;-70
2023/06/14 03:06:04;;;;;;;6.03;4.15;;;;;;;25.33;36.53;99413.63;4500221;31;34804;-69
2023/06/14 03:08:38;;;;;;;6.25;3.70;;;;;;;25.32;36.54;99411.97;4500594;31;34740;-68
2023/06/14 03:11:07;;;;;;;8.40;3.70;;;;;;;25.33;36.56;99410.91;4500590;31;34042;-70
2023/06/14 03:13:35;;;;;;;6.62;3.72;;;;;;;25.32;36.57;99414.69;4500668;31;33087;-69
2023/06/14 03:16:03;;;;;;;6.68;3.70;;;;;;;25.31;36.60;99404.84;4500466;31;33887;-67
2023/06/14 03:18:35;;;;;;;8.18;3.90;;;;;;;25.31;36.58;99408.41;4500362;31;34794;-70
2023/06/14 03:21:03;;;;;;;11.32;3.83;;;;;;;25.30;36.54;99412.22;4510563;31;33880;-70
2023/06/14 03:23:31;;;;;;;6.78;3.97;;;;;;;25.31;36.57;99407.59;4516028;31;33027;-66
2023/06/14 03:25:58;;;;;;;6.15;3.62;;;;;;;25.30;36.66;99411.41;4516060;31;33097;-65
2023/06/14 03:28:26;;;;;;;7.10;4.15;;;;;;;25.30;36.66;99409.50;4502182;31;35048;-70
2023/06/14 03:30:54;;;;;;;6.15;3.85;;;;;;;25.30;36.65;99408.66;4516047;31;33617;-65
2023/06/14 03:33:22;;;;;;;7.25;4.35;;;;;;;25.29;36.65;99410.56;4516359;31;33587;-69
2023/06/14 03:35:50;;;;;;;7.60;4.30;;;;;;;25.30;36.66;99422.31;4516221;31;34528;-70
2023/06/14 03:38:18;;;;;;;7.15;3.70;;;;;;;25.29;36.68;99421.50;4516108;31;34601;-71
2023/06/14 03:40:46;;;;;;;6.62;3.85;;;;;;;25.30;36.74;99419.59;4516003;31;34677;-68
2023/06/14 03:43:14;;;;;;;6.62;4.10;;;;;;;25.29;36.71;99423.41;4516254;31;33319;-69
2023/06/14 03:45:42;;;;;;;7.47;4.68;;;;;;;25.30;36.76;99425.06;4515683;31;34015;-69
2023/06/14 03:48:11;;;;;;;10.40;4.72;;;;;;;25.30;36.74;99419.59;4515879;31;34749;-69
2023/06/14 03:50:39;;;;;;;7.53;4.82;;;;;;;25.29;36.72;99429.69;4515924;31;34706;-69
2023/06/14 03:53:06;;;;;;;7.62;4.43;;;;;;;25.30;36.71;99425.06;4515675;31;34261;-67
2023/06/14 03:55:35;;;;;;;7.93;4.23;;;;;;;25.29;36.77;99426.97;4516136;31;33774;-67
2023/06/14 03:58:06;;;;;;;7.12;4.25;;;;;;;25.30;36.86;99431.34;4489177;31;33553;-69
2023/06/14 04:00:35;;;;;;;7.07;4.85;;;;;;;25.30;36.82;99436.78;4515894;31;34454;-66
2023/06/14 04:03:05;;;;;;;6.85;4.60;;;;;;;25.29;36.78;99434.31;4515731;31;34324;-68
2023/06/14 04:05:33;;;;;;;6.20;4.50;;;;;;;25.29;36.82;99431.59;4515822;31;33951;-71
2023/06/14 04:08:01;;;;;;;6.87;4.50;;;;;;;25.29;36.83;99429.69;4514834;31;34998;-69
2023/06/14 04:10:31;;;;;;;9.32;4.47;;;;;;;25.29;36.90;99432.41;4499254;31;34647;-68
2023/06/14 04:12:59;;;;;;;8.40;4.78;;;;;;;25.30;36.90;99438.72;4497998;31;33363;-66
2023/06/14 04:15:28;;;;;;;9.18;4.18;;;;;;;25.30;36.90;99439.53;4499191;31;34227;-69
2023/06/14 04:17:57;;;;;;;8.73;5.28;;;;;;;25.30;36.93;99446.91;4499300;31;34069;-69
2023/06/14 04:20:25;;;;;;;7.57;4.40;;;;;;;25.30;36.98;99445.00;4499187;31;33870;-65
2023/06/14 04:22:52;;;;;;;9.05;4.70;;;;;;;25.30;36.99;99449.63;4498988;31;33403;-69
2023/06/14 04:25:20;;;;;;;7.97;4.90;;;;;;;25.31;36.97;99448.53;4499059;31;33549;-70
2023/06/14 04:27:52;;;;;;;7.15;4.72;;;;;;;25.31;36.92;99443.91;4499077;31;33881;-70
2023/06/14 04:30:21;;;;;;;8.35;5.00;;;;;;;25.31;36.92;99441.19;4499003;31;34119;-67
2023/06/14 04:32:49;;;;;;;6.95;4.65;;;;;;;25.32;36.95;99450.19;4499536;31;33475;-68
2023/06/14 04:35:17;;;;;;;9.07;4.87;;;;;;;25.33;36.92;99454.59;4499105;31;34593;-70
2023/06/14 04:37:45;;;;;;;8.38;4.95;;;;;;;25.32;37.02;99459.25;4501489;31;34060;-69
2023/06/14 04:40:13;;;;;;;7.50;4.80;;;;;;;25.32;37.11;99450.19;4499252;31;33600;-68
2023/06/14 04:42:44;;;;;;;7.50;4.43;;;;;;;25.33;37.19;99451.87;4498197;31;34299;-68
2023/06/14 04:45:15;;;;;;;8.23;5.43;;;;;;;25.33;37.20;99451.87;4489845;31;33695;-68
2023/06/14 04:47:43;;;;;;;8.40;4.78;;;;;;;25.33;37.17;99465.53;4508955;31;33998;-69
2023/06/14 04:50:12;;;;;;;7.80;5.60;;;;;;;25.33;37.14;99460.06;4515021;31;34250;-71
2023/06/14 04:52:40;;;;;;;11.17;5.07;;;;;;;25.35;37.28;99455.16;4514926;31;34275;-71
2023/06/14 04:55:09;;;;;;;7.28;4.85;;;;;;;25.35;37.38;99463.38;4513107;31;33671;-68
2023/06/14 04:57:38;;;;;;;7.75;4.97;;;;;;;25.33;37.10;99457.34;4505497;31;34670;-70
2023/06/14 05:00:06;;;;;;;9.13;5.32;;;;;;;25.33;36.97;99460.87;4499305;31;33648;-63
2023/06/14 05:02:35;;;;;;;9.43;6.05;;;;;;;25.32;36.90;99461.97;4498846;31;33440;-68
2023/06/14 05:05:07;;;;;;;8.40;5.12;;;;;;;25.32;36.87;99461.13;4484633;31;33323;-69
2023/06/14 05:07:35;;;;;;;8.55;5.60;;;;;;;25.32;36.87;99463.84;4500169;31;33913;-71
2023/06/14 05:10:03;;;;;;;8.02;5.28;;;;;;;25.30;36.83;99460.56;4500963;31;33741;-71
2023/06/14 05:12:30;;;;;;;7.85;5.53;;;;;;;25.29;36.86;99459.72;4501374;31;33540;-63
2023/06/14 05:14:59;;;;;;;8.93;5.43;;;;;;;25.29;36.88;99464.38;4501104;31;33955;-71
2023/06/14 05:17:27;;;;;;;12.25;5.70;;;;;;;25.28;36.93;99460.81;4501229;31;34510;-62
2023/06/14 05:19:58;;;;;;;7.78;5.70;;;;;;;25.28;36.89;99471.72;4503831;31;33896;-71
2023/06/14 05:22:27;;;;;;;8.18;5.55;;;;;;;25.27;36.95;99456.41;4516789;31;33538;-68
2023/06/14 05:24:54;;;;;;;16.25;6.43;;;;;;;25.26;36.93;99465.66;4516651;31;34183;-69
2023/06/14 05:27:21;;;;;;;7.87;5.95;;;;;;;25.26;36.96;99459.37;4515720;31;33991;-68
2023/06/14 05:29:50;;;;;;;8.32;5.43;;;;;;;25.26;36.96;99467.56;4516184;31;33708;-65
2023/06/14 05:32:17;;;;;;;11.32;6.30;;;;;;;25.25;36.99;99468.66;4516847;31;33380;-64
2023/06/14 05:34:45;;;;;;;9.13;5.55;;;;;;;25.25;36.99;99471.38;4516715;31;34817;-72
2023/06/14 05:37:13;;;;;;;8.32;5.93;;;;;;;25.25;37.00;99468.66;4516624;31;34806;-68
2023/06/14 05:39:40;;;;;;;13.30;6.80;;;;;;;25.25;37.04;99469.47;4516742;31;34073;-67
2023/06/14 05:42:08;;;;;;;10.55;5.90;;;;;;;25.25;37.02;99477.69;4516747;31;33348;-67
2023/06/14 05:44:36;;;;;;;12.57;6.00;;;;;;;25.24;37.05;99469.75;4516056;31;33941;-62
2023/06/14 05:47:03;;;;;;;10.95;5.90;;;;;;;25.23;37.06;99468.91;4516586;31;34529;-69
2023/06/14 05:49:31;;;;;;;10.50;6.22;;;;;;;25.23;37.07;99470.78;4509834;31;34735;-68
2023/06/14 05:51:59;;;;;;;8.57;6.25;;;;;;;25.23;37.07;99471.66;4500728;31;33260;-63
2023/06/14 05:54:26;;;;;;;8.02;5.72;;;;;;;25.22;37.04;99477.34;4500861;31;34731;-68
2023/06/14 05:56:54;;;;;;;10.10;5.97;;;;;;;25.22;37.03;99480.06;4500936;31;33895;-64
2023/06/14 05:59:22;;;;;;;12.90;5.82;;;;;;;25.22;37.06;99475.44;4500776;31;33988;-61
2023/06/14 06:01:49;;;;;;;10.00;6.50;;;;;;;25.22;37.07;99469.13;4500913;31;33260;-71
2023/06/14 06:04:17;;;;;;;9.02;5.78;;;;;;;25.22;37.04;99482.78;4499844;31;34854;-65
2023/06/14 06:06:45;;;;;;;8.18;5.37;;;;;;;25.21;37.04;99481.13;4500783;31;34026;-67
2023/06/14 06:09:14;;;;;;;8.23;5.72;;;;;;;25.19;37.04;99484.13;4500704;31;33879;-69
2023/06/14 06:11:41;;;;;;;8.07;5.68;;;;;;;25.19;37.06;99479.50;4500644;31;33641;-68
2023/06/14 06:14:19;;;;;;;8.60;5.72;;;;;;;25.19;37.03;99470.47;4486221;31;33802;-61
2023/06/14 06:16:47;;;;;;;9.35;5.90;;;;;;;25.18;37.05;99474.25;4500654;31;33563;-65
2023/06/14 06:19:15;;;;;;;8.05;5.87;;;;;;;25.18;37.07;99488.75;4499910;31;33972;-60
2023/06/14 06:21:42;;;;;;;8.40;5.20;;;;;;;25.17;37.08;99483.53;4515518;31;33238;-63
2023/06/14 06:24:10;;;;;;;9.23;5.32;;;;;;;25.16;37.11;99482.72;4516553;31;34074;-69
2023/06/14 06:26:38;;;;;;;10.40;5.10;;;;;;;25.16;37.15;99479.97;4516514;31;34886;-62
2023/06/14 06:29:06;;;;;;;7.55;5.03;;;;;;;25.15;37.14;99483.78;4516561;31;33437;-62
2023/06/14 06:31:34;;;;;;;10.32;5.50;;;;;;;25.15;37.16;99483.78;4513562;31;85883;-60
2023/06/14 06:34:01;;;;;;;11.23;5.95;;;;;;;25.15;37.21;99483.78;4516225;31;34795;-67
2023/06/14 06:36:29;;;;;;;7.90;5.35;;;;;;;25.15;37.23;99482.97;4516663;31;33985;-64
2023/06/14 06:38:57;;;;;;;6.95;4.43;;;;;;;25.15;37.18;99477.50;4516445;31;34020;-62
2023/06/14 06:41:24;;;;;;;7.60;5.45;;;;;;;25.14;37.18;99479.41;4516175;31;34199;-63
2023/06/14 06:43:52;;;;;;;8.55;5.25;;;;;;;25.15;37.22;99488.41;4516518;31;33868;-60
2023/06/14 06:46:19;;;;;;;7.65;5.30;;;;;;;25.15;37.20;99491.16;4516502;31;33648;-67
2023/06/14 06:48:47;;;;;;;8.52;6.07;;;;;;;25.14;37.24;99490.31;4516142;31;33566;-63
2023/06/14 06:51:14;;;;;;;7.78;4.87;;;;;;;25.15;37.22;99493.88;4516379;31;33062;-69
2023/06/14 06:53:43;;;;;;;10.98;5.80;;;;;;;25.14;37.22;99486.78;4516290;31;33831;-67
2023/06/14 06:56:16;;;;;;;8.10;5.55;;;;;;;25.15;37.24;99493.88;4516150;31;33967;-67
2023/06/14 06:58:44;;;;;;;8.93;5.53;;;;;;;25.14;37.27;99493.06;4516099;31;34335;-68
2023/06/14 07:01:13;;;;;;;8.77;5.03;;;;;;;25.14;37.24;99492.22;4516252;31;34550;-65
2023/06/14 07:03:40;;;;;;;9.20;5.62;;;;;;;25.13;37.26;99496.00;4516120;31;34599;-62
2023/06/14 07:06:10;;;;;;;7.80;5.22;;;;;;;25.13;37.30;99485.94;4504801;31;34709;-64
2023/06/14 07:08:38;;;;;;;7.35;5.20;;;;;;;25.14;37.28;99493.06;4500414;31;34668;-67
2023/06/14 07:11:06;;;;;;;6.70;5.03;;;;;;;25.14;37.29;99493.06;4500236;31;33520;-61
2023/06/14 07:13:33;;;;;;;7.12;5.28;;;;;;;25.14;37.29;99495.78;4500461;31;33998;-65
2023/06/14 07:16:01;;;;;;;6.95;4.95;;;;;;;25.14;37.28;99493.06;4486233;31;33918;-66
2023/06/14 07:18:29;;;;;;;8.55;5.37;;;;;;;25.14;37.28;99486.78;4486075;31;33815;-61
2023/06/14 07:20:57;;;;;;;7.70;5.30;;;;;;;25.14;37.28;99494.97;4510222;31;33177;-69
2023/06/14 07:23:25;;;;;;;7.50;4.87;;;;;;;25.14;37.29;99497.69;4516127;31;33802;-61
2023/06/14 07:25:52;;;;;;;6.87;4.80;;;;;;;25.13;37.32;99491.41;4515909;31;34770;-61
2023/06/14 07:28:20;;;;;;;7.43;5.07;;;;;;;25.14;37.32;99490.31;4516096;31;34317;-69
2023/06/14 07:30:48;;;;;;;7.15;5.12;;;;;;;25.14;37.32;99494.97;4515607;31;33145;-68
2023/06/14 07:33:16;;;;;;;7.65;5.72;;;;;;;25.14;37.33;99494.97;4515917;31;34571;-65
2023/06/14 07:35:44;;;;;;;7.32;4.87;;;;;;;25.14;37.31;99487.59;4516087;31;33637;-64
2023/06/14 07:38:11;;;;;;;8.77;4.95;;;;;;;25.14;37.33;99495.78;4516003;31;34175;-64
2023/06/14 07:40:39;;;;;;;6.97;5.30;;;;;;;25.13;37.32;99499.59;4501534;31;33275;-68
2023/06/14 07:43:06;;;;;;;7.22;4.80;;;;;;;25.14;37.31;99506.72;4515861;31;33914;-61
2023/06/14 07:45:34;;;;;;;7.57;5.50;;;;;;;25.14;37.32;99505.87;4515904;31;33935;-63
2023/06/14 07:48:01;;;;;;;7.03;4.78;;;;;;;25.14;37.33;99505.87;4515741;31;34129;-63
2023/06/14 07:50:30;;;;;;;8.38;5.43;;;;;;;25.14;37.33;99508.63;4515857;31;34529;-63
2023/06/14 07:52:57;;;;;;;6.50;4.32;;;;;;;25.14;37.33;99508.63;4516084;31;33538;-62
2023/06/14 07:55:25;;;;;;;6.95;4.95;;;;;;;25.14;37.35;99514.06;4515690;31;33541;-62
2023/06/14 07:57:53;;;;;;;7.00;4.72;;;;;;;25.14;37.34;99505.87;4516010;31;34423;-69
2023/06/14 08:00:21;;;;;;;7.82;5.53;;;;;;;25.14;37.35;99520.34;4515598;31;33479;-61
2023/06/14 08:02:48;;;;;;;8.15;5.45;;;;;;;25.13;37.36;99515.97;4501224;31;32719;-68
2023/06/14 08:05:16;;;;;;;9.27;5.15;;;;;;;25.13;37.37;99513.25;4508469;31;33934;-61
2023/06/14 08:07:44;;;;;;;7.85;5.20;;;;;;;25.13;37.37;99513.25;4495291;31;34434;-65
2023/06/14 08:10:12;;;;;;;7.47;4.97;;;;;;;25.14;37.38;99514.06;4499761;31;33128;-64
2023/06/14 08:12:40;;;;;;;9.05;4.78;;;;;;;25.14;37.38;99509.44;4489033;31;34566;-68
2023/06/14 08:15:08;;;;;;;7.62;5.28;;;;;;;25.14;37.39;99514.91;4483748;32;34876;-60
2023/06/14 08:17:43;;;;;;;9.77;5.57;;;;;;;25.13;37.41;99518.72;4484096;32;34478;-66
2023/06/14 08:20:12;;;;;;;7.37;4.95;;;;;;;25.13;37.44;99518.72;4483782;32;33258;-66
2023/06/14 08:22:42;;;;;;;7.12;4.75;;;;;;;25.14;37.48;99519.53;4493230;31;34770;-70
2023/06/14 08:25:12;;;;;;;6.75;4.32;;;;;;;25.14;37.48;99514.06;4487001;31;34783;-69
2023/06/14 08:27:40;;;;;;;8.75;5.25;;;;;;;25.14;37.47;99517.62;4514638;31;33914;-61
2023/06/14 08:30:08;;;;;;;8.45;6.10;;;;;;;25.14;37.45;99525.00;4515136;31;33096;-69
2023/06/14 08:32:36;;;;;;;7.28;4.85;;;;;;;25.13;37.47;99518.72;4515562;31;33952;-66
2023/06/14 08:35:05;;;;;;;7.57;5.47;;;;;;;25.13;37.48;99526.91;4515260;31;34922;-63
2023/06/14 08:37:39;;;;;;;9.20;5.47;;;;;;;25.13;37.51;99526.03;4515386;31;34123;-69
2023/06/14 08:40:17;;;;;;;6.47;4.93;;;;;;;25.15;37.50;99527.47;4515146;31;33548;-70
2023/06/14 08:42:45;;;;;;;7.05;5.03;;;;;;;25.14;37.51;99527.72;4516403;31;33611;-61
2023/06/14 08:45:13;;;;;;;7.87;5.18;;;;;;;25.14;37.53;99542.19;4502999;31;34040;-68
2023/06/14 08:47:41;;;;;;;7.70;4.72;;;;;;;25.14;37.57;99541.38;4517127;31;33616;-67
2023/06/14 08:50:09;;;;;;;9.10;5.55;;;;;;;25.12;37.58;99544.31;4517400;31;33937;-63
2023/06/14 08:53:00;;;;;;;9.73;5.32;;;;;;;25.12;37.58;99547.06;4517210;31;34146;-70
2023/06/14 08:55:29;;;;;;;9.13;5.30;;;;;;;25.13;37.58;99550.63;4517189;31;34917;-65
2023/06/14 08:57:59;;;;;;;8.40;5.35;;;;;;;25.14;37.56;99555.03;4517171;31;33861;-65
2023/06/14 09:00:27;;;;;;;7.93;5.53;;;;;;;25.12;37.56;99557.97;4498071;31;33211;-63
2023/06/14 09:02:58;;;;;;;9.57;5.62;;;;;;;25.13;37.57;99561.53;4501422;31;33973;-68
2023/06/14 09:05:26;;;;;;;26.70;6.82;;;;;;;25.14;37.55;99568.69;4501229;31;33582;-65
2023/06/14 09:07:55;;;;;;;15.23;6.28;;;;;;;25.13;37.66;99559.66;4501130;31;34476;-68
2023/06/14 09:10:22;;;;;;;15.63;5.45;;;;;;;25.13;37.72;99562.38;4501137;31;33489;-69
2023/06/14 09:12:52;;;;;;;13.57;5.93;;;;;;;25.14;37.69;99564.03;4501154;31;33709;-63
2023/06/14 09:15:20;;;;;;;16.77;6.55;;;;;;;25.16;37.67;99561.88;4501005;31;33919;-66
2023/06/14 09:17:47;;;;;;;12.13;5.22;;;;;;;25.16;37.64;99561.06;4501403;31;34061;-70
2023/06/14 09:20:18;;;;;;;19.73;5.65;;;;;;;25.17;37.67;99562.72;4501114;31;33072;-70
2023/06/14 09:22:47;;;;;;;11.50;5.37;;;;;;;25.14;37.77;99558.56;4501359;31;33403;-63
2023/06/14 09:25:15;;;;;;;16.10;5.40;;;;;;;25.16;37.70;99561.06;4499999;31;33578;-70
2023/06/14 09:28:05;;;;;;;16.45;5.60;;;;;;;25.15;37.69;99557.50;4500965;31;33842;-62
2023/06/14 09:30:33;;;;;;;14.65;5.85;;;;;;;25.16;37.68;99556.41;4472160;31;33377;-71
2023/06/14 09:33:01;;;;;;;14.05;5.25;;;;;;;25.17;37.69;99560.81;4487971;31;32643;-68
2023/06/14 09:35:31;;;;;;;13.77;5.57;;;;;;;25.16;37.70;99552.88;4471000;32;34831;-63
2023/06/14 09:37:59;;;;;;;13.30;5.30;;;;;;;25.15;37.73;99553.94;4484247;31;34105;-70
2023/06/14 09:40:26;;;;;;;14.10;5.43;;;;;;;25.16;37.67;99552.88;4476933;31;32860;-64
2023/06/14 09:42:55;;;;;;;10.02;4.95;;;;;;;25.15;37.65;99549.31;4501004;31;33829;-69
2023/06/14 09:45:23;;;;;;;11.75;4.93;;;;;;;25.15;37.64;99546.59;4497712;31;34501;-63
2023/06/14 09:47:51;;;;;;;8.35;4.87;;;;;;;25.16;37.64;99544.69;4491346;31;33712;-62
2023/06/14 09:50:33;;;;;;;12.35;4.82;;;;;;;25.15;37.60;99537.56;4487766;31;34321;-62
2023/06/14 09:53:07;;;;;;;15.20;5.10;;;;;;;25.15;37.57;99543.84;4487759;31;33916;-63
2023/06/14 09:55:37;;;;;;;14.65;5.47;;;;;;;25.16;37.58;99534.56;4470096;32;34009;-64
2023/06/14 09:58:06;;;;;;;10.18;5.18;;;;;;;25.14;37.60;99544.94;4484995;32;33861;-63
2023/06/14 10:00:35;;;;;;;11.55;4.50;;;;;;;25.16;37.59;99539.22;4460096;32;32894;-71
2023/06/14 10:03:13;;;;;;;10.10;4.45;;;;;;;25.15;37.63;99541.13;4492025;31;34561;-68
2023/06/14 10:05:43;;;;;;;12.00;4.25;;;;;;;25.16;37.63;99540.03;4500577;31;33883;-64
2023/06/14 10:08:15;;;;;;;8.23;4.72;;;;;;;25.15;37.64;99538.38;4493435;31;33889;-62
2023/06/14 10:10:43;;;;;;;9.65;5.00;;;;;;;25.14;37.66;99534.00;4484977;32;34419;-66
2023/06/14 10:13:11;;;;;;;8.88;5.22;;;;;;;25.15;37.58;99543.84;4484051;31;33460;-71
2023/06/14 10:15:48;;;;;;;7.57;4.53;;;;;;;25.16;37.54;99529.13;4470681;32;33699;-71
2023/06/14 10:18:25;;;;;;;13.82;4.80;;;;;;;25.15;37.46;99522.00;4470569;32;34977;-63
2023/06/14 10:21:08;;;;;;;8.73;4.72;;;;;;;25.15;37.45;99527.47;4458238;31;33749;-64
2023/06/14 10:23:37;;;;;;;7.47;4.37;;;;;;;25.15;37.49;99535.66;4484169;31;33539;-62
2023/06/14 10:26:05;;;;;;;9.18;4.47;;;;;;;25.15;37.54;99530.19;4487904;31;33874;-67
2023/06/14 10:28:33;;;;;;;6.93;4.10;;;;;;;25.17;37.47;99528.03;4500821;31;33748;-61
2023/06/14 10:31:04;;;;;;;6.57;4.15;;;;;;;25.16;37.17;99526.38;4481444;31;33875;-68
2023/06/14 10:33:33;;;;;;;6.62;4.15;;;;;;;25.15;36.90;99530.19;4496490;31;35594;-67
2023/06/14 10:36:24;;;;;;;8.23;4.10;;;;;;;25.15;37.10;99524.75;4481551;31;34652;-65
2023/06/14 10:39:08;;;;;;;7.90;3.78;;;;;;;25.17;37.13;99527.22;4477421;31;34581;-69
2023/06/14 10:41:37;;;;;;;6.53;4.28;;;;;;;25.16;37.19;99523.66;4500162;31;34741;-63
2023/06/14 10:44:17;;;;;;;6.72;4.32;;;;;;;25.16;37.13;99520.94;4483262;31;33836;-62
2023/06/14 10:46:54;;;;;;;7.68;3.92;;;;;;;25.17;37.09;99519.84;4484217;32;34080;-63
2023/06/14 10:49:45;;;;;;;7.80;4.03;;;;;;;25.18;37.12;99520.66;4483975;32;33811;-62
2023/06/14 10:52:18;;;;;;;8.15;3.80;;;;;;;25.18;37.01;99512.47;4484001;32;34130;-70
2023/06/14 10:55:17;;;;;;;6.03;3.53;;;;;;;25.15;36.99;99511.09;4484604;32;33807;-64
2023/06/14 10:57:56;;;;;;;6.22;3.70;;;;;;;25.19;36.99;99505.97;4488637;31;34042;-61
2023/06/14 11:00:26;;;;;;;6.10;3.55;;;;;;;25.17;36.83;99508.09;4498377;31;33828;-68
2023/06/14 11:03:10;;;;;;;5.20;3.20;;;;;;;25.17;36.91;99508.09;4484709;32;33613;-62
2023/06/14 11:05:47;;;;;;;6.28;3.40;;;;;;;25.19;36.70;99503.25;4483212;31;33745;-68
2023/06/14 11:08:29;;;;;;;6.65;3.80;;;;;;;25.20;36.45;99504.87;4486299;31;34038;-67
2023/06/14 11:11:00;;;;;;;6.43;3.30;;;;;;;25.18;36.39;99498.84;4483609;31;34107;-64
2023/06/14 11:13:28;;;;;;;6.20;3.62;;;;;;;25.18;36.36;99502.41;4483816;31;34923;-61
2023/06/14 11:15:59;;;;;;;6.03;3.42;;;;;;;25.21;35.98;99494.78;4458207;32;34733;-71
2023/06/14 11:18:27;;;;;;;6.35;3.03;;;;;;;25.22;35.61;99499.19;4468782;32;34129;-61
2023/06/14 11:20:55;;;;;;;6.55;3.47;;;;;;;25.21;35.69;99502.97;4457390;31;33810;-62
2023/06/14 11:23:23;;;;;;;4.90;3.30;;;;;;;25.21;35.72;99498.34;4484539;32;33909;-67
2023/06/14 11:25:51;;;;;;;5.90;3.00;;;;;;;25.21;35.79;99502.97;4483771;31;34012;-62
2023/06/14 11:28:22;;;;;;;5.22;3.33;;;;;;;25.21;35.78;99502.97;4484327;32;34558;-61
2023/06/14 11:31:00;;;;;;;5.37;2.97;;;;;;;25.21;35.77;99500.25;4482598;31;33716;-62
2023/06/14 11:33:27;;;;;;;5.45;3.00;;;;;;;25.23;35.92;99498.94;4498513;31;33189;-62
2023/06/14 11:35:55;;;;;;;6.40;3.10;;;;;;;25.22;36.01;99496.44;4500093;31;34707;-62
2023/06/14 11:38:22;;;;;;;5.10;3.12;;;;;;;25.22;36.07;99491.81;4499004;31;34123;-65
2023/06/14 11:40:50;;;;;;;6.18;3.42;;;;;;;25.23;36.07;99495.38;4485784;31;33585;-63
2023/06/14 11:43:18;;;;;;;6.37;3.40;;;;;;;25.24;36.08;99497.87;4499148;31;33744;-71